sensor_id;sensor_type;location;lat;lon;timestamp;P1;durP1;ratioP1;P2;durP2;ratioP2
10440;SDS011;5268;49.346;9.522;2023-07-22T03:07:06;4.18;;;3.08;;
10440;SDS011;5268;49.346;9.522;2023-07-22T03:12:09;8.00;;;3.50;;
10440;SDS011;5268;49.346;9.522;2023-07-22T03:17:11;4.78;;;3.58;;
10440;SDS011;5268;49.346;9.522;2023-07-22T03:22:15;6.78;;;3.63;;
10440;SDS011;5268;49.346;9.522;2023-07-22T03:27:18;3.58;;;3.15;;
10440;SDS011;5268;49.346;9.522;2023-07-22T03:32:20;5.28;;;3.30;;
10440;SDS011;5268;49.346;9.522;2023-07-22T03:37:23;5.43;;;3.42;;
10440;SDS011;5268;49.346;9.522;2023-07-22T03:42:25;7.65;;;3.55;;
10440;SDS011;5268;49.346;9.522;2023-07-22T03:47:27;4.18;;;3.17;;
10440;SDS011;5268;49.346;9.522;2023-07-22T03:52:31;5.97;;;3.50;;
10440;SDS011;5268;49.346;9.522;2023-07-22T03:57:33;3.67;;;2.80;;
10440;SDS011;5268;49.346;9.522;2023-07-22T04:02:35;7.20;;;3.70;;
10440;SDS011;5268;49.346;9.522;2023-07-22T04:07:39;5.57;;;3.40;;
10440;SDS011;5268;49.346;9.522;2023-07-22T04:12:41;4.78;;;3.60;;
10440;SDS011;5268;49.346;9.522;2023-07-22T04:17:43;6.70;;;3.80;;
10440;SDS011;5268;49.346;9.522;2023-07-22T04:22:48;5.10;;;4.00;;
10440;SDS011;5268;49.346;9.522;2023-07-22T04:27:50;4.47;;;3.80;;
10440;SDS011;5268;49.346;9.522;2023-07-22T04:32:52;5.45;;;3.58;;
10440;SDS011;5268;49.346;9.522;2023-07-22T04:37:55;4.85;;;3.80;;
10440;SDS011;5268;49.346;9.522;2023-07-22T04:42:57;5.28;;;4.05;;
10440;SDS011;5268;49.346;9.522;2023-07-22T04:47:59;5.20;;;4.10;;
10440;SDS011;5268;49.346;9.522;2023-07-22T04:53:03;4.72;;;3.67;;
10440;SDS011;5268;49.346;9.522;2023-07-22T04:58:06;6.85;;;4.13;;
10440;SDS011;5268;49.346;9.522;2023-07-22T05:03:08;4.15;;;3.75;;
10440;SDS011;5268;49.346;9.522;2023-07-22T05:08:11;5.32;;;3.90;;
10440;SDS011;5268;49.346;9.522;2023-07-22T05:13:13;4.30;;;3.85;;
10440;SDS011;5268;49.346;9.522;2023-07-22T05:18:16;4.32;;;3.78;;
10440;SDS011;5268;49.346;9.522;2023-07-22T05:23:19;4.90;;;3.67;;
10440;SDS011;5268;49.346;9.522;2023-07-22T05:28:22;7.28;;;4.20;;
10440;SDS011;5268;49.346;9.522;2023-07-22T05:33:24;7.18;;;4.00;;
10440;SDS011;5268;49.346;9.522;2023-07-22T05:38:27;4.47;;;3.78;;
10440;SDS011;5268;49.346;9.522;2023-07-22T05:43:32;4.40;;;3.75;;
10440;SDS011;5268;49.346;9.522;2023-07-22T05:48:34;6.28;;;4.40;;
10440;SDS011;5268;49.346;9.522;2023-07-22T05:53:37;7.82;;;4.40;;
10440;SDS011;5268;49.346;9.522;2023-07-22T05:58:40;6.32;;;4.13;;
10440;SDS011;5268;49.346;9.522;2023-07-22T06:03:42;5.05;;;4.25;;
10440;SDS011;5268;49.346;9.522;2023-07-22T06:08:46;5.07;;;3.97;;
10440;SDS011;5268;49.346;9.522;2023-07-22T06:13:48;5.32;;;4.05;;
10440;SDS011;5268;49.346;9.522;2023-07-22T06:18:50;6.30;;;4.13;;
10440;SDS011;5268;49.346;9.522;2023-07-22T06:23:54;5.20;;;3.90;;
10440;SDS011;5268;49.346;9.522;2023-07-22T06:28:57;5.88;;;3.47;;
10440;SDS011;5268;49.346;9.522;2023-07-22T06:33:59;4.97;;;3.40;;
10440;SDS011;5268;49.346;9.522;2023-07-22T06:39:03;5.10;;;3.60;;
10440;SDS011;5268;49.346;9.522;2023-07-22T06:44:05;4.75;;;3.35;;
10440;SDS011;5268;49.346;9.522;2023-07-22T06:49:07;5.35;;;3.60;;
10440;SDS011;5268;49.346;9.522;2023-07-22T06:54:10;3.42;;;2.72;;
10440;SDS011;5268;49.346;9.522;2023-07-22T06:59:12;3.92;;;2.97;;
10440;SDS011;5268;49.346;9.522;2023-07-22T07:04:14;3.63;;;2.97;;
10440;SDS011;5268;49.346;9.522;2023-07-22T07:09:18;4.65;;;2.90;;
10440;SDS011;5268;49.346;9.522;2023-07-22T07:14:19;3.92;;;3.33;;
10440;SDS011;5268;49.346;9.522;2023-07-22T07:19:21;4.03;;;3.20;;
10440;SDS011;5268;49.346;9.522;2023-07-22T07:24:25;4.45;;;2.85;;
10440;SDS011;5268;49.346;9.522;2023-07-22T07:29:28;5.10;;;2.85;;
10440;SDS011;5268;49.346;9.522;2023-07-22T07:34:30;5.82;;;3.08;;
10440;SDS011;5268;49.346;9.522;2023-07-22T07:39:33;3.72;;;2.90;;
10440;SDS011;5268;49.346;9.522;2023-07-22T07:44:35;3.05;;;2.65;;
10440;SDS011;5268;49.346;9.522;2023-07-22T07:49:37;3.75;;;2.35;;
10440;SDS011;5268;49.346;9.522;2023-07-22T07:54:41;4.28;;;2.60;;
10440;SDS011;5268;49.346;9.522;2023-07-22T07:59:43;2.92;;;2.30;;
10440;SDS011;5268;49.346;9.522;2023-07-22T08:04:45;4.05;;;2.22;;
10440;SDS011;5268;49.346;9.522;2023-07-22T08:09:55;5.57;;;2.60;;
10440;SDS011;5268;49.346;9.522;2023-07-22T08:14:58;4.05;;;2.30;;
10440;SDS011;5268;49.346;9.522;2023-07-22T08:20:00;6.45;;;2.30;;
10440;SDS011;5268;49.346;9.522;2023-07-22T08:25:07;3.75;;;2.70;;
10440;SDS011;5268;49.346;9.522;2023-07-22T08:30:09;2.45;;;2.15;;
10440;SDS011;5268;49.346;9.522;2023-07-22T08:35:11;4.45;;;2.45;;
10440;SDS011;5268;49.346;9.522;2023-07-22T08:40:15;3.75;;;2.20;;
10440;SDS011;5268;49.346;9.522;2023-07-22T08:45:18;4.60;;;2.50;;
10440;SDS011;5268;49.346;9.522;2023-07-22T08:50:22;4.93;;;2.50;;
10440;SDS011;5268;49.346;9.522;2023-07-22T08:55:32;4.35;;;2.40;;
10440;SDS011;5268;49.346;9.522;2023-07-22T09:00:35;3.70;;;2.38;;
10440;SDS011;5268;49.346;9.522;2023-07-22T09:05:38;2.50;;;2.30;;
10440;SDS011;5268;49.346;9.522;2023-07-22T09:10:43;2.85;;;2.10;;
10440;SDS011;5268;49.346;9.522;2023-07-22T09:15:46;3.00;;;2.15;;
10440;SDS011;5268;49.346;9.522;2023-07-22T09:20:49;2.58;;;1.85;;
10440;SDS011;5268;49.346;9.522;2023-07-22T09:25:53;3.30;;;2.00;;
10440;SDS011;5268;49.346;9.522;2023-07-22T09:31:13;2.85;;;1.75;;
10440;SDS011;5268;49.346;9.522;2023-07-22T09:36:17;2.63;;;1.95;;
10440;SDS011;5268;49.346;9.522;2023-07-22T09:41:20;2.97;;;2.05;;
10440;SDS011;5268;49.346;9.522;2023-07-22T09:46:30;5.38;;;2.20;;
10440;SDS011;5268;49.346;9.522;2023-07-22T09:51:34;1.95;;;1.75;;
10440;SDS011;5268;49.346;9.522;2023-07-22T09:56:45;4.82;;;2.20;;
10440;SDS011;5268;49.346;9.522;2023-07-22T10:01:48;5.15;;;2.08;;
10440;SDS011;5268;49.346;9.522;2023-07-22T10:06:51;2.70;;;2.10;;
10440;SDS011;5268;49.346;9.522;2023-07-22T10:11:55;3.35;;;2.20;;
10440;SDS011;5268;49.346;9.522;2023-07-22T10:16:57;2.20;;;2.00;;
10440;SDS011;5268;49.346;9.522;2023-07-22T10:22:01;1.98;;;1.70;;
10440;SDS011;5268;49.346;9.522;2023-07-22T10:27:06;3.38;;;2.05;;
10440;SDS011;5268;49.346;9.522;2023-07-22T10:32:09;1.92;;;1.73;;
10440;SDS011;5268;49.346;9.522;2023-07-22T10:37:11;3.08;;;1.73;;
10440;SDS011;5268;49.346;9.522;2023-07-22T10:42:23;2.35;;;1.80;;
10440;SDS011;5268;49.346;9.522;2023-07-22T10:47:32;1.67;;;1.58;;
10440;SDS011;5268;49.346;9.522;2023-07-22T10:52:40;3.60;;;1.70;;
10440;SDS011;5268;49.346;9.522;2023-07-22T10:57:53;2.75;;;1.70;;
10440;SDS011;5268;49.346;9.522;2023-07-22T11:03:11;3.22;;;1.75;;
10440;SDS011;5268;49.346;9.522;2023-07-22T11:08:15;3.25;;;1.60;;
10440;SDS011;5268;49.346;9.522;2023-07-22T11:13:18;2.85;;;1.70;;
10440;SDS011;5268;49.346;9.522;2023-07-22T11:18:35;9.05;;;2.00;;
10440;SDS011;5268;49.346;9.522;2023-07-22T11:23:40;2.75;;;1.50;;
10440;SDS011;5268;49.346;9.522;2023-07-22T11:28:43;2.75;;;1.70;;
10440;SDS011;5268;49.346;9.522;2023-07-22T11:33:47;1.98;;;1.73;;
10440;SDS011;5268;49.346;9.522;2023-07-22T11:38:50;5.25;;;1.60;;
10440;SDS011;5268;49.346;9.522;2023-07-22T11:43:53;1.75;;;1.50;;
10440;SDS011;5268;49.346;9.522;2023-07-22T11:48:58;4.28;;;1.52;;
10440;SDS011;5268;49.346;9.522;2023-07-22T11:54:00;2.90;;;1.48;;
10440;SDS011;5268;49.346;9.522;2023-07-22T11:59:04;2.25;;;1.55;;
10440;SDS011;5268;49.346;9.522;2023-07-22T12:04:09;1.50;;;1.40;;
10440;SDS011;5268;49.346;9.522;2023-07-22T12:09:13;2.88;;;1.50;;
10440;SDS011;5268;49.346;9.522;2023-07-22T12:14:16;3.55;;;1.50;;
10440;SDS011;5268;49.346;9.522;2023-07-22T12:19:18;2.97;;;1.58;;
10440;SDS011;5268;49.346;9.522;2023-07-22T12:24:20;1.60;;;1.50;;
10440;SDS011;5268;49.346;9.522;2023-07-22T12:29:24;2.50;;;1.50;;
10440;SDS011;5268;49.346;9.522;2023-07-22T12:34:26;1.80;;;1.70;;
10440;SDS011;5268;49.346;9.522;2023-07-22T12:39:30;2.00;;;1.80;;
10440;SDS011;5268;49.346;9.522;2023-07-22T12:44:33;3.00;;;1.70;;
10440;SDS011;5268;49.346;9.522;2023-07-22T12:49:35;3.17;;;1.70;;
10440;SDS011;5268;49.346;9.522;2023-07-22T12:54:37;2.05;;;1.58;;
10440;SDS011;5268;49.346;9.522;2023-07-22T12:59:41;2.25;;;1.70;;
10440;SDS011;5268;49.346;9.522;2023-07-22T13:04:43;2.72;;;1.90;;
10440;SDS011;5268;49.346;9.522;2023-07-22T13:09:45;3.05;;;1.80;;
10440;SDS011;5268;49.346;9.522;2023-07-22T13:14:50;3.00;;;1.60;;
10440;SDS011;5268;49.346;9.522;2023-07-22T13:19:52;2.10;;;1.90;;
10440;SDS011;5268;49.346;9.522;2023-07-22T13:24:54;3.13;;;1.95;;
10440;SDS011;5268;49.346;9.522;2023-07-22T13:30:02;2.17;;;1.80;;
10440;SDS011;5268;49.346;9.522;2023-07-22T13:35:06;2.78;;;1.60;;
10440;SDS011;5268;49.346;9.522;2023-07-22T13:40:09;2.83;;;2.00;;
10440;SDS011;5268;49.346;9.522;2023-07-22T13:45:14;2.45;;;1.90;;
10440;SDS011;5268;49.346;9.522;2023-07-22T13:50:16;2.85;;;2.10;;
10440;SDS011;5268;49.346;9.522;2023-07-22T13:55:24;1.92;;;1.70;;
10440;SDS011;5268;49.346;9.522;2023-07-22T14:00:28;2.83;;;2.10;;
10440;SDS011;5268;49.346;9.522;2023-07-22T14:05:30;3.38;;;2.00;;
10440;SDS011;5268;49.346;9.522;2023-07-22T14:10:35;2.20;;;2.00;;
10440;SDS011;5268;49.346;9.522;2023-07-22T14:15:38;3.83;;;2.10;;
10440;SDS011;5268;49.346;9.522;2023-07-22T14:20:40;2.83;;;2.13;;
10440;SDS011;5268;49.346;9.522;2023-07-22T14:25:43;2.60;;;1.98;;
10440;SDS011;5268;49.346;9.522;2023-07-22T14:30:47;2.22;;;2.03;;
10440;SDS011;5268;49.346;9.522;2023-07-22T14:35:49;2.45;;;1.95;;
10440;SDS011;5268;49.346;9.522;2023-07-22T14:40:54;2.40;;;2.20;;
10440;SDS011;5268;49.346;9.522;2023-07-22T14:45:58;3.25;;;2.40;;
10440;SDS011;5268;49.346;9.522;2023-07-22T14:51:00;4.72;;;2.38;;
10440;SDS011;5268;49.346;9.522;2023-07-22T14:56:05;2.42;;;2.10;;
10440;SDS011;5268;49.346;9.522;2023-07-22T15:01:09;1.95;;;1.75;;
10440;SDS011;5268;49.346;9.522;2023-07-22T15:06:11;3.47;;;2.03;;
10440;SDS011;5268;49.346;9.522;2023-07-22T15:11:13;4.20;;;1.85;;
10440;SDS011;5268;49.346;9.522;2023-07-22T15:16:17;3.72;;;2.13;;
10440;SDS011;5268;49.346;9.522;2023-07-22T15:21:19;3.92;;;2.30;;
10440;SDS011;5268;49.346;9.522;2023-07-22T15:26:21;2.30;;;2.05;;
10440;SDS011;5268;49.346;9.522;2023-07-22T15:31:28;3.33;;;2.17;;
10440;SDS011;5268;49.346;9.522;2023-07-22T15:36:30;3.25;;;2.10;;
10440;SDS011;5268;49.346;9.522;2023-07-22T15:41:32;3.10;;;2.30;;
10440;SDS011;5268;49.346;9.522;2023-07-22T15:46:36;3.90;;;2.15;;
10440;SDS011;5268;49.346;9.522;2023-07-22T15:51:38;3.75;;;2.20;;
10440;SDS011;5268;49.346;9.522;2023-07-22T15:56:47;4.05;;;2.40;;
10440;SDS011;5268;49.346;9.522;2023-07-22T16:01:50;4.32;;;2.30;;
10440;SDS011;5268;49.346;9.522;2023-07-22T16:06:55;3.00;;;2.30;;
10440;SDS011;5268;49.346;9.522;2023-07-22T16:11:57;2.92;;;2.42;;
10440;SDS011;5268;49.346;9.522;2023-07-22T16:17:01;2.63;;;2.38;;
10440;SDS011;5268;49.346;9.522;2023-07-22T16:22:03;2.72;;;2.35;;
10440;SDS011;5268;49.346;9.522;2023-07-22T16:27:05;3.65;;;2.70;;
10440;SDS011;5268;49.346;9.522;2023-07-22T16:32:09;3.60;;;2.63;;
10440;SDS011;5268;49.346;9.522;2023-07-22T16:37:11;4.32;;;2.38;;
10440;SDS011;5268;49.346;9.522;2023-07-22T16:42:13;3.95;;;2.50;;
10440;SDS011;5268;49.346;9.522;2023-07-22T16:47:16;4.18;;;2.30;;
10440;SDS011;5268;49.346;9.522;2023-07-22T16:52:18;2.47;;;2.22;;
10440;SDS011;5268;49.346;9.522;2023-07-22T16:57:21;13.48;;;3.50;;
10440;SDS011;5268;49.346;9.522;2023-07-22T17:02:24;8.15;;;2.72;;
10440;SDS011;5268;49.346;9.522;2023-07-22T17:07:26;5.65;;;2.70;;
10440;SDS011;5268;49.346;9.522;2023-07-22T17:12:28;19.13;;;3.60;;
10440;SDS011;5268;49.346;9.522;2023-07-22T17:17:32;6.03;;;3.10;;
10440;SDS011;5268;49.346;9.522;2023-07-22T17:22:34;4.38;;;3.08;;
10440;SDS011;5268;49.346;9.522;2023-07-22T17:27:36;5.45;;;2.72;;
10440;SDS011;5268;49.346;9.522;2023-07-22T17:32:39;9.05;;;7.88;;
10440;SDS011;5268;49.346;9.522;2023-07-22T17:37:42;11.93;;;4.13;;
10440;SDS011;5268;49.346;9.522;2023-07-22T17:42:44;10.73;;;3.80;;
10440;SDS011;5268;49.346;9.522;2023-07-22T17:47:47;14.38;;;5.50;;
10440;SDS011;5268;49.346;9.522;2023-07-22T17:52:49;15.43;;;3.92;;
10440;SDS011;5268;49.346;9.522;2023-07-22T17:57:51;5.63;;;4.60;;
10440;SDS011;5268;49.346;9.522;2023-07-22T18:02:55;17.25;;;4.13;;
10440;SDS011;5268;49.346;9.522;2023-07-22T18:07:57;14.02;;;4.05;;
10440;SDS011;5268;49.346;9.522;2023-07-22T18:12:59;10.57;;;3.20;;
10440;SDS011;5268;49.346;9.522;2023-07-22T18:18:02;34.88;;;5.10;;
10440;SDS011;5268;49.346;9.522;2023-07-22T18:23:04;11.50;;;3.95;;
10440;SDS011;5268;49.346;9.522;2023-07-22T18:28:06;25.80;;;5.20;;
10440;SDS011;5268;49.346;9.522;2023-07-22T18:33:10;40.75;;;5.57;;
10440;SDS011;5268;49.346;9.522;2023-07-22T18:38:12;27.15;;;4.90;;
10440;SDS011;5268;49.346;9.522;2023-07-22T18:43:14;41.08;;;6.38;;
10440;SDS011;5268;49.346;9.522;2023-07-22T18:48:18;27.65;;;4.90;;
10440;SDS011;5268;49.346;9.522;2023-07-22T18:53:20;47.70;;;7.13;;
10440;SDS011;5268;49.346;9.522;2023-07-22T18:58:22;51.25;;;7.32;;
10440;SDS011;5268;49.346;9.522;2023-07-22T19:03:25;39.33;;;5.95;;
10440;SDS011;5268;49.346;9.522;2023-07-22T19:08:27;22.73;;;4.13;;
10440;SDS011;5268;49.346;9.522;2023-07-22T19:13:29;6.22;;;3.00;;
10440;SDS011;5268;49.346;9.522;2023-07-22T19:18:33;4.55;;;2.65;;
10440;SDS011;5268;49.346;9.522;2023-07-22T19:23:35;3.20;;;2.67;;
10440;SDS011;5268;49.346;9.522;2023-07-22T19:28:37;21.08;;;4.28;;
10440;SDS011;5268;49.346;9.522;2023-07-22T19:33:40;151.55;;;16.27;;
10440;SDS011;5268;49.346;9.522;2023-07-22T19:38:42;102.57;;;13.90;;
10440;SDS011;5268;49.346;9.522;2023-07-22T19:43:44;10.98;;;3.55;;
10440;SDS011;5268;49.346;9.522;2023-07-22T19:48:48;49.58;;;7.53;;
10440;SDS011;5268;49.346;9.522;2023-07-22T19:53:50;82.95;;;11.00;;
10440;SDS011;5268;49.346;9.522;2023-07-22T19:58:52;33.97;;;5.80;;
10440;SDS011;5268;49.346;9.522;2023-07-22T20:03:55;18.15;;;3.92;;
10440;SDS011;5268;49.346;9.522;2023-07-22T20:08:57;27.75;;;4.43;;
10440;SDS011;5268;49.346;9.522;2023-07-22T20:13:59;23.88;;;5.15;;
10440;SDS011;5268;49.346;9.522;2023-07-22T20:19:06;14.18;;;4.15;;
10440;SDS011;5268;49.346;9.522;2023-07-22T20:24:08;9.88;;;3.80;;
10440;SDS011;5268;49.346;9.522;2023-07-22T20:29:10;8.05;;;3.10;;
10440;SDS011;5268;49.346;9.522;2023-07-22T20:34:13;7.00;;;3.40;;
10440;SDS011;5268;49.346;9.522;2023-07-22T20:39:16;6.97;;;2.95;;
10440;SDS011;5268;49.346;9.522;2023-07-22T20:44:19;8.13;;;3.40;;
10440;SDS011;5268;49.346;9.522;2023-07-22T20:49:23;5.80;;;2.97;;
10440;SDS011;5268;49.346;9.522;2023-07-22T20:54:25;4.88;;;3.42;;
10440;SDS011;5268;49.346;9.522;2023-07-22T20:59:27;6.07;;;3.00;;
10440;SDS011;5268;49.346;9.522;2023-07-22T21:04:31;8.88;;;3.10;;
10440;SDS011;5268;49.346;9.522;2023-07-22T21:09:33;4.10;;;3.15;;
10440;SDS011;5268;49.346;9.522;2023-07-22T21:14:35;5.45;;;3.25;;
10440;SDS011;5268;49.346;9.522;2023-07-22T21:19:38;8.23;;;3.00;;
10440;SDS011;5268;49.346;9.522;2023-07-22T21:24:40;5.70;;;2.85;;
10440;SDS011;5268;49.346;9.522;2023-07-22T21:29:42;6.20;;;3.80;;
10440;SDS011;5268;49.346;9.522;2023-07-22T21:34:46;6.70;;;3.60;;
10440;SDS011;5268;49.346;9.522;2023-07-22T21:39:48;6.15;;;3.40;;
10440;SDS011;5268;49.346;9.522;2023-07-22T21:44:50;6.28;;;2.83;;
10440;SDS011;5268;49.346;9.522;2023-07-22T21:49:54;7.28;;;3.40;;
10440;SDS011;5268;49.346;9.522;2023-07-22T21:54:56;4.40;;;2.85;;
